Tiempo atmosférico en la estación meteorológica de Castell, Platja d'Aro, Girona (14 m.)



Fecha
DESCASC
Temp. máxima en grados centígrados (hora)
DESCASC
Temp. mínima en grados centígrados (hora)
DESCASC
Temp. media en grados centígrados
DESCASC
Racha de viento máxima en m/sg (hora)
DESCASC
Velocidad máxima media en intervalos de 10 minutos(hora)
DESCASC
Precipitaciones diarias en mm
DESCASC
Precipitaciones de 00:00 a 06:00 en mm
DESCASC
Precipitaciones de 06:00 a 12:00 en mm
DESCASC
Precipitaciones de 12:00 a 18:00 en mm
DESCASC
Precipitaciones de 18:00 a 24:00 en mm
DESCASC
23-06-2019 27.1 (16:40) 16 (05:50) 21.6 10 (12:50) 6.39 (12:40) 0 0 0 0 0
22-06-2019 23.6 (09:40) 15.7 (07:00) 19.7 6.94 (12:30) 3.89 (12:30) 0 0 0 0 0
21-06-2019 28.4 (12:10) 16.2 (05:50) 22.3 8.61 (09:40) 4.17 (15:00) 0 0 0 0 0
20-06-2019 27.4 (14:10) 16.8 (00:00) 22.1 10 (13:50) 5 (13:50) 0 0 0 0 0
19-06-2019 -- (--) -- (--) -- -- (--) -- (--) -- 0 -- -- 0
18-06-2019 27.8 (11:30) 13.7 (00:00) 20.7 11.94 (15:00) 6.67 (15:00) 0 0 0 0 0
17-06-2019 26.9 (13:50) 14.8 (00:00) 20.8 7.22 (18:50) 3.89 (15:50) 0 0 0 0 0
16-06-2019 24.9 (11:40) 13.3 (00:00) 19.1 10 (08:00) 5.83 (07:20) 0 0 0 0 0
15-06-2019 23.2 (15:30) 13.9 (00:00) 18.6 10 (22:20) 4.72 (23:00) 0 0 0 0 0
14-06-2019 27.2 (16:00) 13.4 (00:00) 20.3 13.89 (12:00) 6.39 (12:00) 0 0 0 0 0
13-06-2019 21.7 (13:10) 10.2 (00:00) 16 6.67 (15:40) 3.33 (15:20) 0 0 0 0 0
12-06-2019 20.5 (15:00) 8.3 (00:00) 14.4 10.83 (16:30) 5.28 (16:30) 0 0 0 0 0
11-06-2019 18.3 (00:00) 11.7 (00:00) 15 7.78 (00:20) 3.61 (00:20) 17.6 0.4 3.4 11.8 2
10-06-2019 26.7 (12:00) 17.3 (00:00) 22 16.67 (01:10) 5.28 (01:20) 0 0 0 0 0
09-06-2019 25 (12:40) 14.8 (00:00) 19.9 8.06 (15:50) 3.89 (13:10) 0 0 0 0 0
08-06-2019 24.4 (13:40) 16.7 (00:00) 20.6 11.39 (03:50) 5 (02:50) 0 0 0 0 0
07-06-2019 25.4 (18:10) 15.2 (00:00) 20.3 11.39 (13:20) 6.11 (18:50) 0 0 0 0 0
06-06-2019 21.4 (16:10) 10.7 (00:00) 16 10 (15:50) 5 (10:40) 0 0 0 0 0
05-06-2019 24.3 (17:00) 11.9 (00:00) 18.1 14.17 (18:00) 7.5 (18:00) 0 0 0 0 0
04-06-2019 26.4 (14:30) 16.8 (00:00) 21.6 8.61 (12:20) 4.17 (11:50) 0 0 0 0 0
03-06-2019 26.9 (13:50) 12.1 (00:00) 19.5 10 (16:20) 5.56 (12:00) 0 0 0 0 0
02-06-2019 25.5 (16:50) 12.1 (00:00) 18.8 9.17 (15:30) 4.72 (11:00) 0 0 0 0 0
01-06-2019 24 (12:40) 12.2 (00:00) 18.1 10.28 (15:40) 6.39 (15:40) 0 0 0 0 0
31-05-2019 25.2 (11:00) 12.3 (00:00) 18.8 7.5 (15:10) 4.17 (13:40) 0 0 0 0 0
30-05-2019 22.5 (12:50) 10.7 (00:00) 16.6 9.17 (13:00) 5.83 (13:00) 0 0 0 0 0
29-05-2019 21.7 (13:10) 10.3 (00:00) 16 10.56 (04:10) 4.72 (16:00) 0 0 0 0 0
28-05-2019 20.3 (11:20) 12.5 (00:00) 16.4 6.67 (20:40) 3.61 (20:40) 0.2 0 0 0 0.2

Gráficas

Temp. máximas Temp. mínimas Temp. medias Precipitaciones Rachas de viento máximas Velocidades máximas media en intervalos de 10 minutos

Datos horarios

Fecha y hora oficial Temperatura (ºC) Velocidad del viento (km/h) Dirección del viento Racha (km/h) Dirección de racha Precipitación (mm) Presión (hPa) Tendencia (hPa) Humedad (%)
2019-06-26 23:00:00 22 3 Oeste 6 Noroeste 0 -- -- 69
2019-06-26 22:00:00 23.7 0 Calma 5 Sur 0 -- -- 64
2019-06-26 21:00:00 26.3 0 Calma 7 Este 0 -- -- 67
2019-06-26 20:00:00 26.8 5 Sudeste 13 Este 0 -- -- 64
2019-06-26 19:00:00 28 9 Este 15 Este 0 -- -- 59
2019-06-26 18:00:00 28 7 Este 15 Este 0 -- -- 62
2019-06-26 17:00:00 28.5 10 Este 23 Este 0 -- -- 59
2019-06-26 16:00:00 29.9 10 Este 22 Este 0 -- -- 53
2019-06-26 15:00:00 29.1 12 Este 23 Este 0 -- -- 55
2019-06-26 14:00:00 29.5 12 Este 25 Este 0 -- -- 51
2019-06-26 13:00:00 29.5 13 Este 25 Este 0 -- -- 51
2019-06-26 12:00:00 29.3 12 Este 23 Este 0 -- -- 51
2019-06-26 11:00:00 29.9 9 Este 17 Este 0 -- -- 47
2019-06-26 10:00:00 29.7 7 Este 18 Norte 0 -- -- 49
2019-06-26 09:00:00 24 4 Oeste 12 Oeste 0 -- -- 68
2019-06-26 08:00:00 20.5 4 Oeste 14 Sudoeste 0 -- -- 78
2019-06-26 07:00:00 18.2 8 Oeste 15 Oeste 0 -- -- 85
2019-06-26 06:00:00 17.6 5 Oeste 13 Sudoeste 0 -- -- 88
2019-06-26 05:00:00 18 6 Oeste 15 Oeste 0 -- -- 87
2019-06-26 04:00:00 18.4 5 Oeste 12 Oeste 0 -- -- 86
2019-06-26 03:00:00 18.6 6 Oeste 14 Oeste 0 -- -- 87
2019-06-26 02:00:00 19 6 Oeste 14 Oeste 0 -- -- 85
2019-06-26 01:00:00 19.7 4 Oeste 11 Oeste 0 -- -- 84
2019-06-26 00:00:00 21 4 Oeste 9 Oeste 0 -- -- 80
2019-06-25 23:00:00 22 4 Oeste 9 Oeste 0 -- -- 76
2019-06-25 22:00:00 23.7 4 Sudeste 10 Este 0 -- -- 70
2019-06-25 21:00:00 25.5 5 Este 10 Este 0 -- -- 63
2019-06-25 20:00:00 26 6 Este 17 Este 0 -- -- 62
2019-06-25 19:00:00 26.7 4 Sudeste 17 Sur 0 -- -- 65
2019-06-25 18:00:00 26.8 9 Este 25 Sudeste 0 -- -- 65
2019-06-25 17:00:00 27.5 9 Sudeste 21 Este 0 -- -- 64
2019-06-25 16:00:00 26.8 13 Este 23 Este 0 -- -- 66
2019-06-25 15:00:00 27.8 13 Este 21 Este 0 -- -- 58
2019-06-25 14:00:00 28.2 10 Este 24 Nordeste 0 -- -- 54
2019-06-25 13:00:00 28.5 11 Este 21 Este 0 -- -- 46
2019-06-25 12:00:00 29.2 12 Este 23 Nordeste 0 -- -- 41
2019-06-25 11:00:00 27.9 9 Este 18 Este 0 -- -- 56
2019-06-25 10:00:00 26.5 7 Este 13 Este 0 -- -- 60
2019-06-25 09:00:00 22.2 3 Oeste 11 Oeste 0 -- -- 79
2019-06-25 08:00:00 18.8 4 Oeste 11 Oeste 0 -- -- 89
2019-06-25 07:00:00 17.2 3 Oeste 10 Oeste 0 -- -- 93
2019-06-25 06:00:00 17.1 5 Oeste 12 Oeste 0 -- -- 93
2019-06-25 05:00:00 17.3 3 Oeste 11 Oeste 0 -- -- 92
2019-06-25 04:00:00 17.8 5 Oeste 13 Oeste 0 -- -- 91
2019-06-25 03:00:00 18.3 3 Oeste 10 Sudoeste 0 -- -- 91
2019-06-25 02:00:00 18.8 4 Oeste 9 Oeste -- -- -- 90
2019-06-25 01:00:00 19.7 3 Oeste 9 Oeste 0 -- -- 90
2019-06-25 00:00:00 20.4 2 Sudoeste 9 Este 0 -- -- 88
2019-06-24 23:00:00 21.9 4 Este 13 Este 0 -- -- 82
2019-06-24 22:00:00 22.3 4 Este 13 Este 0 -- -- 83
2019-06-24 21:00:00 22.9 6 Este 17 Este 0 -- -- 81
2019-06-24 20:00:00 23.1 9 Este 20 Este 0 -- -- 79
2019-06-24 19:00:00 24 11 Este 26 Nordeste 0 -- -- 74
2019-06-24 18:00:00 25.4 12 Este 24 Este 0 -- -- 66
2019-06-24 17:00:00 26.8 11 Este 26 Este 0 -- -- 53
2019-06-24 16:00:00 27.9 12 Este 21 Nordeste 0 -- -- 40
2019-06-24 15:00:00 27.4 11 Este 22 Este 0 -- -- 46
2019-06-24 14:00:00 26.9 9 Este 19 Este 0 -- -- 52
2019-06-24 13:00:00 26.5 9 Este 18 Este 0 -- -- 51
2019-06-24 12:00:00 25.8 9 Este 17 Este 0 -- -- 53
2019-06-24 11:00:00 24.9 9 Este 18 Nordeste 0 -- -- 61
2019-06-24 10:00:00 23.7 7 Este 17 Este 0 -- -- 77
2019-06-24 09:00:00 21.9 10 Este 16 Este 0 -- -- 86
2019-06-24 08:00:00 17.8 5 Noroeste 10 Oeste 0 -- -- 83
2019-06-24 07:00:00 16.5 5 Oeste 11 Oeste 0 -- -- 87
2019-06-24 06:00:00 16.4 4 Oeste 12 Sudoeste 0 -- -- 87
2019-06-24 05:00:00 16.7 4 Oeste 15 Sudoeste 0 -- -- 88
2019-06-24 04:00:00 16.7 4 Oeste 10 Oeste 0 -- -- 87
2019-06-24 03:00:00 17.3 5 Oeste 11 Oeste 0 -- -- 86
2019-06-24 02:00:00 17.9 4 Oeste 9 Oeste 0 -- -- 84
2019-06-24 01:00:00 18.7 3 Oeste 8 Oeste 0 -- -- 83
2019-06-24 00:00:00 19.8 2 Sur 5 Sudoeste 0 -- -- 83
2019-06-23 23:00:00 20.6 2 Este 7 Este 0 -- -- 83
2019-06-23 22:00:00 22.2 3 Este 10 Nordeste 0 -- -- 77
2019-06-23 21:00:00 22.9 2 Este 18 Sudoeste 0 -- -- 76
2019-06-23 20:00:00 23.7 8 Sur 20 Sur 0 -- -- 78
2019-06-23 19:00:00 26.2 16 Sur 34 Sur 0 -- -- 56
2019-06-23 18:00:00 26.6 12 Sur 34 Sur 0 -- -- 58
2019-06-23 17:00:00 26.5 15 Sur 29 Sur 0 -- -- 66
2019-06-23 16:00:00 26.3 11 Sudoeste 32 Sur 0 -- -- 63
2019-06-23 15:00:00 25.9 12 Sur 27 Sudoeste 0 -- -- 67
2019-06-23 14:00:00 26 14 Sur 36 Sur 0 -- -- 66
2019-06-23 13:00:00 25.9 21 Sur 36 Sur 0 -- -- 68
2019-06-23 12:00:00 25.9 18 Sur 31 Sur 0 -- -- 69
2019-06-23 11:00:00 25.6 22 Sur 31 Sur 0 -- -- 69
2019-06-23 10:00:00 25.6 10 Sur 24 Sudoeste 0 -- -- 68
2019-06-23 09:00:00 22.3 2 Sudoeste 9 Oeste 0 -- -- 80
2019-06-23 08:00:00 18.7 2 Sudoeste 7 Oeste 0 -- -- 90
2019-06-23 07:00:00 16.5 6 Oeste 9 Sudoeste 0 -- -- 94
2019-06-23 06:00:00 16 4 Oeste 11 Sudoeste 0 -- -- 94
2019-06-23 05:00:00 16.5 3 Sudoeste 9 Oeste 0 -- -- 93
2019-06-23 04:00:00 17.1 3 Oeste 11 Sudoeste 0 -- -- 95
2019-06-23 03:00:00 16.9 4 Oeste 8 Oeste 0 -- -- 93
2019-06-23 02:00:00 17.2 3 Oeste 10 Oeste 0 -- -- 92
2019-06-23 01:00:00 17.3 4 Oeste 8 Oeste 0 -- -- 89
2019-06-23 00:00:00 18.3 3 Oeste 5 Oeste 0 -- -- 87
2019-06-22 23:00:00 19.7 0 Calma 6 Nordeste 0 -- -- 85
2019-06-22 22:00:00 20.7 0 Calma 9 Sur 0 -- -- 81
2019-06-22 21:00:00 21.7 3 Sudeste 15 Sudoeste 0 -- -- 81
2019-06-22 20:00:00 22 6 Sur 18 Sudeste 0 -- -- 82
2019-06-22 19:00:00 22.4 9 Sur 18 Sudeste 0 -- -- 78
2019-06-22 18:00:00 22.9 8 Sur 16 Sudeste 0 -- -- 73
2019-06-22 17:00:00 23 8 Sudeste 17 Sudoeste 0 -- -- 71
2019-06-22 16:00:00 22.4 7 Este 21 Sudeste 0 -- -- 71
2019-06-22 15:00:00 23 9 Sudeste 22 Este 0 -- -- 70
2019-06-22 14:00:00 22.7 9 Sudeste 20 Sudeste 0 -- -- 70
2019-06-22 13:00:00 23.2 9 Sudeste 25 Sudeste 0 -- -- 70
2019-06-22 12:00:00 22.6 11 Este 22 Sudeste 0 -- -- 77
2019-06-22 11:00:00 22.8 8 Este 18 Sudeste 0 -- -- 78
2019-06-22 10:00:00 23.2 9 Este 17 Este 0 -- -- 71
2019-06-22 09:00:00 22 4 Nordeste 7 Nordeste 0 -- -- 72
2019-06-22 08:00:00 17.7 5 Oeste 10 Oeste 0 -- -- 78
2019-06-22 07:00:00 15.7 3 Sudoeste 12 Oeste 0 -- -- 82
2019-06-22 06:00:00 16.4 4 Oeste 9 Oeste 0 -- -- 80
2019-06-22 05:00:00 17.1 3 Oeste 7 Noroeste 0 -- -- 77
2019-06-22 04:00:00 18.2 3 Oeste 19 Oeste 0 -- -- 73
2019-06-22 03:00:00 19.2 11 Oeste 18 Oeste 0 -- -- 70
2019-06-22 02:00:00 20 5 Oeste 14 Oeste 0 -- -- 67
2019-06-22 01:00:00 20.8 4 Oeste 17 Oeste 0 -- -- 64
2019-06-22 00:00:00 21.2 0 Calma 19 Oeste 0 -- -- 65
2019-06-21 23:00:00 22.2 4 Sudoeste 12 Norte 0 -- -- 61
2019-06-21 22:00:00 22.8 0 Calma 9 Este 0 -- -- 68
2019-06-21 21:00:00 24 6 Nordeste 19 Este 0 -- -- 64
2019-06-21 20:00:00 23.6 7 Este 16 Sudeste 0 -- -- 64
2019-06-21 19:00:00 23.5 10 Este 26 Este 0 -- -- 71
2019-06-21 18:00:00 23.7 13 Este 30 Sudeste 0 -- -- 70
2019-06-21 17:00:00 26.1 14 Este 30 Este 0 -- -- 60
2019-06-21 16:00:00 26.6 11 Este 29 Este 0 -- -- 59
2019-06-21 15:00:00 25.1 15 Este 28 Nordeste 0 -- -- 66
2019-06-21 14:00:00 26 11 Este 22 Sudeste 0 -- -- 62
2019-06-21 13:00:00 26.4 11 Este 24 Nordeste 0 -- -- 59
2019-06-21 12:00:00 28.2 6 Nordeste 21 Nordeste 0 -- -- 47
2019-06-21 11:00:00 26.1 6 Norte 25 Noroeste 0 -- -- 53
2019-06-21 10:00:00 24.7 11 Norte 31 Norte 0 -- -- 61
2019-06-21 09:00:00 21.8 9 Noroeste 17 Oeste 0 -- -- 79
2019-06-21 08:00:00 19.3 10 Oeste 18 Oeste 0 -- -- 91
2019-06-21 07:00:00 16.6 8 Oeste 17 Oeste 0 -- -- 96
2019-06-21 06:00:00 16.2 4 Oeste 8 Oeste 0 -- -- 94
2019-06-21 05:00:00 16.7 3 Oeste 8 Oeste 0 -- -- 92
2019-06-21 04:00:00 17.5 3 Oeste 6 Sudeste 0 -- -- 93
2019-06-21 03:00:00 16.9 0 Calma 4 Sur 0 -- -- 92
2019-06-21 02:00:00 17 0 Calma 8 Oeste 0 -- -- 90
2019-06-21 01:00:00 17.7 4 Oeste 6 Oeste 0 -- -- 88
2019-06-21 00:00:00 18.4 0 Calma 8 Noroeste 0 -- -- 88
2019-06-20 23:00:00 19.3 3 Sudoeste 6 Sudeste 0 -- -- 85
2019-06-20 22:00:00 20 4 Sur 7 Sur 0 -- -- 84
2019-06-20 21:00:00 21.1 3 Sudeste 10 Este 0 -- -- 80
2019-06-20 20:00:00 21.9 5 Este 14 Este 0 -- -- 78
2019-06-20 19:00:00 22.8 8 Este 14 Sudeste 0 -- -- 76
2019-06-20 18:00:00 22.8 10 Sudeste 19 Sudeste 0 -- -- 76
2019-06-20 17:00:00 23.5 13 Este 28 Este 0 -- -- 70
2019-06-20 16:00:00 24.6 13 Este 29 Este 0 -- -- 66
2019-06-20 15:00:00 25.2 13 Este 28 Este 0 -- -- 64
2019-06-20 14:00:00 27 17 Nordeste 36 Este 0 -- -- 51
2019-06-20 13:00:00 24.5 11 Este 29 Este 0 -- -- 69
2019-06-20 12:00:00 23.3 12 Este 27 Este 0 -- -- 73
2019-06-20 11:00:00 22.5 10 Este 23 Este 0 -- -- 76
2019-06-20 10:00:00 21.4 9 Este 22 Este 0 -- -- 82
2019-06-20 09:00:00 20.9 9 Este 17 Este 0 -- -- 84
2019-06-20 08:00:00 19.2 3 Noroeste 5 Noroeste 0 -- -- 89
2019-06-20 07:00:00 16.9 0 Calma 6 Noroeste 0 -- -- 94
2019-06-20 06:00:00 16.9 3 Oeste 6 Oeste 0 -- -- 93
2019-06-20 05:00:00 17.1 2 Oeste 7 Oeste 0 -- -- 92
2019-06-20 04:00:00 17.3 3 Oeste 8 Noroeste 0 -- -- 91
2019-06-20 03:00:00 17.9 4 Oeste 9 Oeste 0 -- -- 92
2019-06-20 02:00:00 18.2 3 Oeste 8 Oeste 0 -- -- 92
2019-06-20 01:00:00 18.2 5 Oeste 10 Oeste 0 -- -- 92
2019-06-20 00:00:00 18.5 4 Oeste 8 Oeste 0 -- -- 90
2019-06-19 23:00:00 19.7 4 Oeste 7 Noroeste 0 -- -- 87
2019-06-19 22:00:00 20.8 3 Noroeste 17 Sudoeste 0 -- -- 85
2019-06-19 21:00:00 21.6 8 Sur 20 Sudeste 0 -- -- 83
2019-06-19 20:00:00 22.5 10 Sur 22 Sudoeste 0 -- -- 79
2019-06-19 19:00:00 23.2 11 Sur 27 Sur 0 -- -- 78
2019-06-19 18:00:00 23.6 13 Sur 31 Sudoeste 0 -- -- 78
2019-06-19 17:00:00 23.3 17 Sur 34 Sur 0 -- -- 77
2019-06-19 16:00:00 24 16 Sur 34 Sur 0 -- -- 74
2019-06-19 15:00:00 23.8 18 Sur -- -- -- -- -- 74
2019-06-19 14:00:00 24 17 Sur 30 Sur 0 -- -- 74
2019-06-19 13:00:00 24.2 16 Sur 32 Sur 0 -- -- 72
2019-06-19 12:00:00 -- -- -- -- -- -- -- -- --
2019-06-19 11:00:00 23.2 15 Sur 32 Sur 0 -- -- 75
2019-06-19 10:00:00 21.9 17 Sur 31 Sur 0 -- -- 81
2019-06-19 09:00:00 21.1 13 Sur 28 Sur 0 -- -- 74
2019-06-19 08:00:00 19.8 14 Sur 24 Sur 0 -- -- 79
2019-06-19 07:00:00 19.3 8 Sudeste 20 Sur 0 -- -- 82
2019-06-19 06:00:00 18.8 13 Sur 22 Sur 0 -- -- 79
2019-06-19 05:00:00 16.2 4 Sudoeste 12 Sur 0 -- -- 87
2019-06-19 04:00:00 15.6 0 Calma 6 Sur 0 -- -- 89
2019-06-19 03:00:00 16.6 4 Oeste 9 Noroeste 0 -- -- 87
2019-06-19 02:00:00 18.6 3 Noroeste 18 Sudoeste 0 -- -- 87
2019-06-19 01:00:00 19 4 Sudoeste 15 Sudoeste 0 -- -- 84
2019-06-19 00:00:00 19.8 10 Sur 21 Sur 0 -- -- 80
2019-06-18 23:00:00 19.9 2 Oeste 18 Sur 0 -- -- 77
2019-06-18 22:00:00 20.2 9 Sur 22 Sur 0 -- -- 81
2019-06-18 21:00:00 20.8 14 Sur 28 Sudeste 0 -- -- 84
2019-06-18 20:00:00 21.8 15 Sur 31 Sur 0 -- -- 75
2019-06-18 19:00:00 22.7 15 Sur 31 Sur 0 -- -- 74
2019-06-18 18:00:00 23.2 18 Sur 41 Sur 0 -- -- 71
2019-06-18 17:00:00 24.8 18 Sur 40 Sur 0 -- -- 56
2019-06-18 16:00:00 25.4 16 Sur 41 Sur 0 -- -- 52
2019-06-18 15:00:00 24.1 24 Sur 43 Sur 0 -- -- 62
2019-06-18 14:00:00 25.2 18 Sur 41 Sudoeste 0 -- -- 58
2019-06-18 13:00:00 26.1 8 Sur 31 Sur 0 -- -- 47
2019-06-18 12:00:00 26.8 14 Sur 30 Sur 0 -- -- 48
2019-06-18 11:00:00 27.6 9 Sur 27 Sur 0 -- -- 38
2019-06-18 10:00:00 25.7 8 Sur 13 Sur 0 -- -- 47
2019-06-18 09:00:00 21.6 2 Sudoeste 11 Sudoeste 0 -- -- 61
2019-06-18 08:00:00 17.5 7 Oeste 13 Oeste 0 -- -- 72
2019-06-18 07:00:00 14 5 Oeste 12 Oeste 0 -- -- 80
2019-06-18 06:00:00 13.8 5 Oeste 10 Oeste 0 -- -- 80
2019-06-18 05:00:00 14.2 4 Oeste 9 Oeste 0 -- -- 80
2019-06-18 04:00:00 14.1 4 Oeste 12 Sudoeste 0 -- -- 82
2019-06-18 03:00:00 14.8 5 Oeste 10 Oeste 0 -- -- 80
2019-06-18 02:00:00 15.4 4 Oeste 11 Oeste 0 -- -- 82
2019-06-18 01:00:00 16.2 8 Oeste 12 Oeste 0 -- -- 80
2019-06-18 00:00:00 16 3 Oeste 8 Sudoeste 0 -- -- 83
2019-06-17 23:00:00 17.2 3 Oeste 6 Sudoeste 0 -- -- 83
2019-06-17 22:00:00 19.2 2 Sudoeste 9 Sur 0 -- -- 82
2019-06-17 21:00:00 21.3 0 Calma 18 Sur 0 -- -- 79
2019-06-17 20:00:00 21.3 12 Sur 26 Sur 0 -- -- 81
2019-06-17 19:00:00 22.1 13 Sur 26 Sur 0 -- -- 76
2019-06-17 18:00:00 23.2 9 Sudeste 25 Sur 0 -- -- 75
2019-06-17 17:00:00 23.8 8 Sudeste 22 Sudeste 0 -- -- 69
2019-06-17 16:00:00 25.2 12 Sudeste 23 Sudeste 0 -- -- 47
2019-06-17 15:00:00 26.1 12 Sur 24 Sur 0 -- -- 45
2019-06-17 14:00:00 26.7 12 Sur 22 Sudeste 0 -- -- 46
2019-06-17 13:00:00 26.7 9 Sur 24 Sudeste 0 -- -- 44
2019-06-17 12:00:00 26.6 9 Sudeste 17 Sudeste 0 -- -- 44
2019-06-17 11:00:00 26.4 7 Sudeste 15 Sudeste -- -- -- 46
2019-06-17 10:00:00 25.1 5 Sudeste 11 Sudeste 0 -- -- 48
2019-06-17 09:00:00 22 4 Sudoeste 12 Sudoeste 0 -- -- 68
2019-06-17 08:00:00 17.9 4 Oeste 12 Oeste 0 -- -- 80
2019-06-17 07:00:00 15.1 5 Oeste 15 Oeste 0 -- -- 89
2019-06-17 06:00:00 14.9 5 Oeste 13 Sudoeste 0 -- -- 89
2019-06-17 05:00:00 14.9 5 Oeste 13 Sudoeste 0 -- -- 88
2019-06-17 04:00:00 16.1 5 Oeste 15 Sudoeste 0 -- -- 85
2019-06-17 03:00:00 16.3 5 Oeste 14 Sudoeste 0 -- -- 83
2019-06-17 02:00:00 16.9 4 Oeste 15 Oeste 0 -- -- 81
2019-06-17 01:00:00 17.5 6 Oeste 18 Oeste 0 -- -- 79
2019-06-17 00:00:00 17.8 5 Oeste 13 Oeste 0 -- -- 77
2019-06-16 23:00:00 18.8 6 Oeste 17 Oeste 0 -- -- 72
2019-06-16 22:00:00 20.1 3 Oeste 13 Oeste 0 -- -- 66
2019-06-16 21:00:00 21.5 4 Sudoeste 16 Sur 0 -- -- 61
2019-06-16 20:00:00 22.2 9 Sur 21 Sur 0 -- -- 61
2019-06-16 19:00:00 22.6 14 Sur 31 Sur 0 -- -- 61
2019-06-16 18:00:00 23 17 Sur 27 Sur 0 -- -- 49
2019-06-16 17:00:00 23.4 14 Sur 28 Sur 0 -- -- 51
2019-06-16 16:00:00 23.8 12 Sur 26 Sur 0 -- -- 53
2019-06-16 15:00:00 23.7 11 Sur 24 Sur 0 -- -- 48
2019-06-16 14:00:00 23.8 11 Sur 22 Sudeste 0 -- -- 46
2019-06-16 13:00:00 23.6 9 Sudeste 24 Sudeste 0 -- -- 46
2019-06-16 12:00:00 24 12 Sudeste 24 Este 0 -- -- 46
2019-06-16 11:00:00 24.3 8 Norte 27 Norte 0 -- -- 44
2019-06-16 10:00:00 22.8 12 Norte 26 Noroeste 0 -- -- 46
2019-06-16 09:00:00 20.7 17 Noroeste 33 Noroeste 0 -- -- 52
2019-06-16 08:00:00 20.1 19 Noroeste 36 Noroeste 0 -- -- 52
2019-06-16 07:00:00 14.8 10 Oeste 28 Noroeste 0 -- -- 75
2019-06-16 06:00:00 13.3 6 Oeste 14 Oeste 0 -- -- 86
2019-06-16 05:00:00 14 5 Oeste 15 Oeste 0 -- -- 83
2019-06-16 04:00:00 14.4 3 Oeste 12 Oeste 0 -- -- 80
2019-06-16 03:00:00 15.4 5 Oeste 11 Oeste 0 -- -- 76
2019-06-16 02:00:00 16.6 6 Oeste 13 Oeste 0 -- -- 70
2019-06-16 01:00:00 17.9 5 Oeste 31 Noroeste 0 -- -- 65
2019-06-16 00:00:00 19.4 14 Norte 33 Norte 0 -- -- 57
2019-06-15 23:00:00 19.6 17 Norte 36 Noroeste 0 -- -- 57
2019-06-15 22:00:00 20.4 10 Noroeste 25 Noroeste 0 -- -- 57
2019-06-15 21:00:00 21.5 5 Norte 11 Nordeste 0 -- -- 57
2019-06-15 20:00:00 21.4 3 Sur 13 Sur 0 -- -- 68
2019-06-15 19:00:00 21.6 6 Sudeste 18 Este 0 -- -- 69
2019-06-15 18:00:00 21.7 11 Este 23 Este 0 -- -- 68
2019-06-15 17:00:00 22.3 10 Este 21 Sudeste 0 -- -- 68
2019-06-15 16:00:00 22.7 13 Este 23 Este 0 -- -- 65
2019-06-15 15:00:00 22.9 10 Este 22 Este 0 -- -- 67
2019-06-15 14:00:00 22.4 11 Este 22 Este 0 -- -- 64
2019-06-15 13:00:00 21.8 11 Este 26 Nordeste 0 -- -- 72
2019-06-15 12:00:00 21.4 12 Este 29 Este 0 -- -- 77
2019-06-15 11:00:00 21.4 12 Este 25 Este 0 -- -- 75
2019-06-15 10:00:00 21.1 10 Este 19 Este 0 -- -- 78
2019-06-15 09:00:00 20.9 10 Nordeste 17 Este 0 -- -- 74
2019-06-15 08:00:00 16.9 3 Sudoeste 11 Oeste 0 -- -- 88
2019-06-15 07:00:00 14.1 4 Oeste 10 Sudoeste 0 -- -- 93
2019-06-15 06:00:00 14.2 4 Oeste 8 Oeste 0 -- -- 92
2019-06-15 05:00:00 15.3 3 Oeste 11 Sudoeste 0 -- -- 91
2019-06-15 04:00:00 15.5 5 Oeste 13 Sudoeste 0 -- -- 91
2019-06-15 03:00:00 15.7 4 Oeste 12 Oeste 0 -- -- 90
2019-06-15 02:00:00 16.4 2 Sudoeste 11 Oeste 0 -- -- 87
2019-06-15 01:00:00 16.7 3 Sudoeste 9 Noroeste 0 -- -- 86
2019-06-15 00:00:00 17.3 2 Sudoeste 8 Noroeste 0 -- -- 84
2019-06-14 23:00:00 18.8 3 Oeste 5 Oeste 0 -- -- 78
2019-06-14 22:00:00 20.6 2 Norte 12 Sudoeste 0 -- -- 73
2019-06-14 21:00:00 22 8 Sur 25 Sudoeste 0 -- -- 65
2019-06-14 20:00:00 23.2 12 Sur 32 Sudoeste 0 -- -- 60
2019-06-14 19:00:00 23.9 10 Sudoeste 33 Sur 0 -- -- 58
2019-06-14 18:00:00 25 10 Sudoeste 41 Sudoeste 0 -- -- 55
2019-06-14 17:00:00 26.1 15 Sudoeste 46 Sur 0 -- -- 48
2019-06-14 16:00:00 27.2 8 Oeste 28 Noroeste 0 -- -- 46
2019-06-14 15:00:00 24.6 12 Nordeste 27 Norte 0 -- -- 51
2019-06-14 14:00:00 24.9 10 Noroeste 20 Nordeste 0 -- -- 49
2019-06-14 13:00:00 24 10 Norte 48 Nordeste 0 -- -- 51
2019-06-14 12:00:00 21.9 23 Nordeste 50 Nordeste 0 -- -- 57
2019-06-14 11:00:00 22.6 18 Norte 39 Norte 0 -- -- 56
2019-06-14 10:00:00 21.1 13 Norte 45 Nordeste 0 -- -- 63
2019-06-14 09:00:00 19.8 14 Norte 46 Norte 0 -- -- 65
2019-06-14 08:00:00 19.4 17 Norte 39 Nordeste 0 -- -- 65
2019-06-14 07:00:00 18.6 10 Norte 34 Norte 0 -- -- 62
2019-06-14 06:00:00 18.6 12 Norte 30 Nordeste 0 -- -- 51
2019-06-14 05:00:00 18.4 13 Noroeste 27 Noroeste 0 -- -- 54
2019-06-14 04:00:00 14.9 7 Sudoeste 16 Noroeste 0 -- -- 65
2019-06-14 03:00:00 14.5 5 Noroeste 13 Noroeste 0 -- -- 68
2019-06-14 02:00:00 13.4 6 Oeste 14 Oeste 0 -- -- 72
2019-06-14 01:00:00 14.1 4 Oeste 12 Sudoeste 0 -- -- 69
2019-06-14 00:00:00 14.7 5 Oeste 10 Sudoeste 0 -- -- 72
2019-06-13 23:00:00 15.6 3 Oeste 9 Sudoeste 0 -- -- 71
2019-06-13 22:00:00 16.7 3 Oeste 9 Oeste 0 -- -- 70
2019-06-13 21:00:00 18.1 3 Este 14 Nordeste 0 -- -- 63
2019-06-13 20:00:00 19.1 6 Este 17 Este 0 -- -- 55
2019-06-13 19:00:00 18.6 7 Nordeste 17 Este 0 -- -- 81
2019-06-13 18:00:00 17.9 8 Este 18 Este 0 -- -- 84
2019-06-13 17:00:00 16.9 8 Este 18 Este 0 -- -- 93
2019-06-13 16:00:00 17.2 11 Sudeste 24 Sudeste 0 -- -- 92
2019-06-13 15:00:00 20.9 9 Sudeste 21 Sudeste 0 -- -- 61
2019-06-13 14:00:00 21.2 8 Sudeste 20 Sudeste 0 -- -- 53
2019-06-13 13:00:00 21.3 6 Sur 17 Sudeste 0 -- -- 62
2019-06-13 12:00:00 20.8 8 Este 19 Este 0 -- -- 69
2019-06-13 11:00:00 20.9 8 Este 15 Este 0 -- -- 69
2019-06-13 10:00:00 20.1 7 Sur 14 Sudeste 0 -- -- 69
2019-06-13 09:00:00 17.6 3 Oeste 10 Noroeste 0 -- -- 77
2019-06-13 08:00:00 13.5 4 Oeste 13 Sudoeste 0 -- -- 91
2019-06-13 07:00:00 10.2 5 Oeste 10 Sudoeste 0 -- -- 96
2019-06-13 06:00:00 10.8 6 Oeste 12 Oeste 0 -- -- 95
2019-06-13 05:00:00 11.2 5 Sudoeste 12 Sudoeste 0 -- -- 95
2019-06-13 04:00:00 11.3 3 Oeste 11 Oeste 0 -- -- 95
2019-06-13 03:00:00 12 3 Oeste 9 Oeste 0 -- -- 94
2019-06-13 02:00:00 12.6 4 Oeste 10 Oeste 0 -- -- 93
2019-06-13 01:00:00 13.4 4 Oeste 9 Oeste 0 -- -- 91
2019-06-13 00:00:00 14.6 3 Oeste 6 Sudoeste 0 -- -- 87
2019-06-12 23:00:00 16.1 0 Calma 14 Sur 0 -- -- 83
2019-06-12 22:00:00 17 3 Sudoeste 17 Sur 0 -- -- 78
2019-06-12 21:00:00 17.9 6 Sur 24 Sudoeste 0 -- -- 75
2019-06-12 20:00:00 18.3 9 Sur 26 Sudoeste 0 -- -- 72
2019-06-12 19:00:00 19.3 11 Sudoeste 31 Sudoeste 0 -- -- 68
2019-06-12 18:00:00 19.7 13 Sur 35 Sur 0 -- -- 67
2019-06-12 17:00:00 20.2 14 Sur 39 Sur 0 -- -- 64
2019-06-12 16:00:00 20.4 14 Sur 37 Sudeste 0 -- -- 65
2019-06-12 15:00:00 20.5 12 Sur 35 Sudoeste 0 -- -- 61
2019-06-12 14:00:00 20 16 Sur 32 Sur 0 -- -- 61
2019-06-12 13:00:00 19.1 12 Sudeste 22 Sudeste 0 -- -- 64
2019-06-12 12:00:00 18 10 Sudeste 22 Sudeste 0 -- -- 66
2019-06-12 11:00:00 17.4 9 Este 15 Este 0 -- -- 71
2019-06-12 10:00:00 16.8 4 Este 11 Este 0 -- -- 67
2019-06-12 09:00:00 14.6 3 Oeste 9 Oeste 0 -- -- 88
2019-06-12 08:00:00 11.1 5 Oeste 9 Oeste 0 -- -- 97
2019-06-12 07:00:00 8.5 3 Oeste 10 Oeste 0 -- -- 99
2019-06-12 06:00:00 8.5 3 Oeste 11 Oeste 0 -- -- 99
2019-06-12 05:00:00 8.6 4 Oeste 9 Oeste 0 -- -- 98
2019-06-12 04:00:00 9.4 3 Oeste 13 Oeste 0 -- -- 99
2019-06-12 03:00:00 10.2 3 Oeste 18 Oeste 0 -- -- 99
2019-06-12 02:00:00 10.6 4 Oeste 10 Noroeste 0 -- -- 98
2019-06-12 01:00:00 11.1 5 Oeste 10 Oeste 0 -- -- 97
2019-06-12 00:00:00 11.7 5 Oeste 13 Oeste 0 -- -- 97
2019-06-11 23:00:00 12.3 2 Oeste 8 Oeste 0.2 -- -- 96
2019-06-11 22:00:00 12.6 3 Sudoeste 10 Noroeste 1 -- -- 96
2019-06-11 21:00:00 12.7 7 Noroeste 16 Noroeste 0.6 -- -- 95
2019-06-11 20:00:00 12.8 7 Noroeste 13 Noroeste 0 -- -- 92
2019-06-11 19:00:00 13.1 3 Sudoeste 15 Norte 0.2 -- -- 90
2019-06-11 18:00:00 13 5 Nordeste 20 Nordeste 0.6 -- -- 85
2019-06-11 17:00:00 12.9 5 Noroeste 23 Noroeste 1.6 -- -- 89
2019-06-11 16:00:00 12.9 9 Noroeste 19 Noroeste 3 -- -- 91
2019-06-11 15:00:00 13.4 5 Oeste 16 Noroeste 4.4 -- -- 93
2019-06-11 14:00:00 13.7 10 Noroeste 22 Noroeste 0.8 -- -- 91
2019-06-11 13:00:00 14.2 7 Norte 18 Norte 1.4 -- -- 89
2019-06-11 12:00:00 15 6 Este 12 Este 1.6 -- -- 91
2019-06-11 11:00:00 15.8 4 Este 10 Este 1 -- -- 94
2019-06-11 10:00:00 15.1 4 Oeste 13 Oeste 0.4 -- -- 94
2019-06-11 09:00:00 14.8 6 Oeste 19 Oeste 0.4 -- -- 93
2019-06-11 08:00:00 14.9 8 Oeste 14 Oeste 0 -- -- 91
2019-06-11 07:00:00 14.5 6 Oeste 16 Noroeste 0 -- -- 92
2019-06-11 06:00:00 14.7 3 Oeste 21 Oeste 0.4 -- -- 90
2019-06-11 05:00:00 15.1 5 Oeste 15 Oeste 0 -- -- 83
2019-06-11 04:00:00 16.2 3 Oeste 8 Oeste 0 -- -- 74
2019-06-11 03:00:00 16.6 4 Oeste 12 Oeste 0 -- -- 64
2019-06-11 02:00:00 16.8 5 Oeste 14 Oeste 0 -- -- 65
2019-06-11 01:00:00 17.8 4 Oeste 28 Norte 0 -- -- 58
2019-06-11 00:00:00 18.3 8 Noroeste 31 Noroeste 0 -- -- 56
2019-06-10 23:00:00 18.6 10 Noroeste 25 Norte 0 -- -- 57
2019-06-10 22:00:00 19.1 12 Norte 28 Norte 0 -- -- 55
2019-06-10 21:00:00 20.1 3 Este 10 Nordeste 0 -- -- 67
2019-06-10 20:00:00 21.1 3 Sudoeste 9 Oeste 0 -- -- 67
2019-06-10 19:00:00 19.4 6 Sur 22 Sur 0 -- -- 89
2019-06-10 18:00:00 17.7 11 Sudeste 24 Sudeste 0 -- -- 97
2019-06-10 17:00:00 18.6 12 Sudeste 23 Sudeste 0 -- -- 92
2019-06-10 16:00:00 19.4 10 Sur 25 Sudeste 0 -- -- 93
2019-06-10 15:00:00 23.9 15 Sudeste 24 Sudeste 0 -- -- 55
2019-06-10 14:00:00 24.2 14 Sur 30 Sur 0 -- -- 57
2019-06-10 13:00:00 24.8 15 Sur 31 Sur 0 -- -- 56
2019-06-10 12:00:00 26.7 7 Sudeste 30 Noroeste 0 -- -- 45
2019-06-10 11:00:00 25.3 13 Noroeste 29 Oeste 0 -- -- 45
2019-06-10 10:00:00 23.6 10 Norte 22 Noroeste 0 -- -- 52
2019-06-10 09:00:00 22.1 14 Noroeste 27 Noroeste 0 -- -- 54
2019-06-10 08:00:00 21.2 14 Noroeste 28 Noroeste 0 -- -- 55
2019-06-10 07:00:00 21 12 Noroeste 23 Noroeste 0 -- -- 58
2019-06-10 06:00:00 21.1 8 Noroeste 23 Norte 0 -- -- 58
2019-06-10 05:00:00 21.5 10 Norte 36 Norte 0 -- -- 58
2019-06-10 04:00:00 22.3 10 Norte 30 Noroeste 0 -- -- 53
2019-06-10 03:00:00 22.2 9 Norte 35 Noroeste 0 -- -- 54
2019-06-10 02:00:00 22.5 13 Noroeste 60 Noroeste 0 -- -- 56
2019-06-10 01:00:00 22.7 17 Norte 37 Norte 0 -- -- 54
2019-06-10 00:00:00 19.3 5 Norte 13 Nordeste 0 -- -- 69
2019-06-09 23:00:00 19.8 2 Sudeste 12 Noroeste 0 -- -- 67
2019-06-09 22:00:00 20.9 8 Oeste 14 Oeste 0 -- -- 65
2019-06-09 21:00:00 21.2 5 Norte 12 Nordeste 0 -- -- 63
2019-06-09 20:00:00 21.7 7 Norte 19 Noroeste 0 -- -- 60
2019-06-09 19:00:00 21.5 6 Norte 24 Nordeste 0 -- -- 65
2019-06-09 18:00:00 22.3 7 Norte 25 Nordeste 0 -- -- 62
2019-06-09 17:00:00 22.8 8 Este 27 Nordeste 0 -- -- 64
2019-06-09 16:00:00 23.3 12 Nordeste 29 Nordeste 0 -- -- 64
2019-06-09 15:00:00 23.7 10 Este 28 Nordeste 0 -- -- 63
2019-06-09 14:00:00 24.1 13 Nordeste 28 Este 0 -- -- 55
2019-06-09 13:00:00 24.9 12 Este 26 Este 0 -- -- 47
2019-06-09 12:00:00 24.7 8 Norte 22 Nordeste 0 -- -- 37
2019-06-09 11:00:00 23.8 10 Nordeste 19 Norte 0 -- -- 29
2019-06-09 10:00:00 22.2 9 Este 17 Nordeste 0 -- -- 35
2019-06-09 09:00:00 20.2 3 Oeste 9 Oeste 0 -- -- 48
2019-06-09 08:00:00 17.9 4 Oeste 11 Oeste 0 -- -- 51
2019-06-09 07:00:00 15.8 3 Oeste 13 Oeste 0 -- -- 49
2019-06-09 06:00:00 14.9 3 Oeste 15 Oeste 0 -- -- 50
2019-06-09 05:00:00 14.9 4 Oeste 14 Oeste 0 -- -- 49
2019-06-09 04:00:00 15.6 6 Oeste 14 Oeste 0 -- -- 48
2019-06-09 03:00:00 16 5 Oeste 13 Sudoeste 0 -- -- 46
2019-06-09 02:00:00 16.7 5 Oeste 13 Sudoeste 0 -- -- 43
2019-06-09 01:00:00 17 5 Oeste 12 Oeste 0 -- -- 42
2019-06-09 00:00:00 17.7 5 Oeste 11 Oeste 0 -- -- 41
2019-06-08 23:00:00 18.5 4 Oeste 9 Sudoeste 0 -- -- 39
2019-06-08 22:00:00 19.9 4 Oeste 9 Oeste 0 -- -- 36
2019-06-08 21:00:00 21.4 3 Sur 9 Sur 0 -- -- 31
2019-06-08 20:00:00 22.4 6 Este 14 Este 0 -- -- 28
2019-06-08 19:00:00 23 9 Este 20 Este 0 -- -- 25
2019-06-08 18:00:00 23.1 10 Este 24 Este 0 -- -- 25
2019-06-08 17:00:00 23.2 12 Este 31 Este 0 -- -- 31
2019-06-08 16:00:00 23.3 14 Este 26 Este 0 -- -- 37
2019-06-08 15:00:00 23.5 11 Este 29 Este 0 -- -- 36
2019-06-08 14:00:00 24.2 13 Este 30 Nordeste 0 -- -- 30
2019-06-08 13:00:00 23.6 17 Nordeste 32 Este 0 -- -- 36
2019-06-08 12:00:00 23.4 12 Nordeste 25 Este 0 -- -- 36
2019-06-08 11:00:00 22.7 12 Este 20 Sudeste 0 -- -- 42
2019-06-08 10:00:00 21.7 7 Nordeste 23 Norte 0 -- -- 41
2019-06-08 09:00:00 19.8 10 Norte 36 Nordeste 0 -- -- 44
2019-06-08 08:00:00 18.5 13 Norte 32 Noroeste 0 -- -- 47
2019-06-08 07:00:00 17 15 Norte 36 Norte 0 -- -- 51
2019-06-08 06:00:00 16.8 13 Norte 35 Norte 0 -- -- 53
2019-06-08 05:00:00 17.1 14 Norte 36 Nordeste 0 -- -- 53
2019-06-08 04:00:00 17.5 17 Norte 41 Norte 0 -- -- 52
2019-06-08 03:00:00 17.9 16 Norte 37 Norte 0 -- -- 52
2019-06-08 02:00:00 18.3 12 Norte 34 Norte 0 -- -- 54
2019-06-08 01:00:00 18 6 Norte 18 Nordeste 0 -- -- 56
2019-06-08 00:00:00 17.8 5 Nordeste 15 Nordeste 0 -- -- 61
2019-06-07 23:00:00 18.7 6 Nordeste 20 Norte 0 -- -- 58
2019-06-07 22:00:00 18.8 5 Norte 17 Este 0 -- -- 62
2019-06-07 21:00:00 19.4 7 Este 21 Este 0 -- -- 65
2019-06-07 20:00:00 20.7 13 Este 26 Este 0 -- -- 62
2019-06-07 19:00:00 21.4 18 Este 40 Este 0 -- -- 60
2019-06-07 18:00:00 25.2 13 Sur 27 Sur 0 -- -- 59
2019-06-07 17:00:00 24.9 14 Sur 29 Sur 0 -- -- 61
2019-06-07 16:00:00 24.6 14 Sur 39 Sudoeste 0 -- -- 62
2019-06-07 15:00:00 24.5 15 Sur 39 Sur 0 -- -- 60
2019-06-07 14:00:00 23.6 17 Sur 41 Sur 0 -- -- 70
2019-06-07 13:00:00 23.3 15 Sur 37 Sur 0 -- -- 69
2019-06-07 12:00:00 22.9 9 Sur 31 Sudoeste 0 -- -- 69
2019-06-07 11:00:00 22.6 10 Sur 20 Sudeste 0 -- -- 73
2019-06-07 10:00:00 21.5 7 Sur 14 Sudoeste 0 -- -- 79
2019-06-07 09:00:00 19.1 4 Sudoeste 12 Sudoeste 0 -- -- 89
2019-06-07 08:00:00 17.3 0 Calma 4 Norte 0 -- -- 89
2019-06-07 07:00:00 16.1 0 Calma 6 Oeste 0 -- -- 90
2019-06-07 06:00:00 15.5 3 Oeste 8 Oeste 0 -- -- 89
2019-06-07 05:00:00 15.5 3 Oeste 6 Oeste 0 -- -- 90
2019-06-07 04:00:00 15.2 4 Oeste 5 Oeste 0 -- -- 90
2019-06-07 03:00:00 16.5 2 Oeste 5 Sudoeste 0 -- -- 86
2019-06-07 02:00:00 16.8 0 Calma 5 Oeste 0 -- -- 85
2019-06-07 01:00:00 16.3 0 Calma 6 Oeste 0 -- -- 86
2019-06-07 00:00:00 15.5 0 Calma 3 Norte 0 -- -- 88
2019-06-06 23:00:00 17.3 2 Sudeste 13 Sudoeste 0 -- -- 83
2019-06-06 22:00:00 17.5 4 Sur 14 Sur 0 -- -- 81
2019-06-06 21:00:00 18.1 5 Sur 22 Sudeste 0 -- -- 79
2019-06-06 20:00:00 18.7 9 Sur 24 Sudoeste 0 -- -- 76
2019-06-06 19:00:00 19.5 12 Sur 27 Sudoeste 0 -- -- 73
2019-06-06 18:00:00 20.1 10 Sur 28 Sudoeste 0 -- -- 70
2019-06-06 17:00:00 20.8 16 Sur 33 Sur 0 -- -- 67
2019-06-06 16:00:00 21.1 14 Sur 36 Sudeste 0 -- -- 67
2019-06-06 15:00:00 20.9 15 Sudeste 31 Sudeste 0 -- -- 65
2019-06-06 14:00:00 19.1 13 Sur 27 Sudeste 0 -- -- 69
2019-06-06 13:00:00 20.6 16 Sur 29 Sudeste 0 -- -- 65
2019-06-06 12:00:00 21 13 Sur 32 Sur 0 -- -- 65
2019-06-06 11:00:00 20.3 15 Sur 33 Sur 0 -- -- 70
2019-06-06 10:00:00 20.5 13 Sur 25 Sur 0 -- -- 68
2019-06-06 09:00:00 19.2 3 Sudeste 8 Oeste 0 -- -- 64
2019-06-06 08:00:00 13.8 4 Oeste 10 Oeste 0 -- -- 77
2019-06-06 07:00:00 10.8 7 Oeste 13 Oeste 0 -- -- 81
2019-06-06 06:00:00 11.2 5 Oeste 10 Sudoeste 0 -- -- 79
2019-06-06 05:00:00 11.4 5 Oeste 12 Oeste 0 -- -- 78
2019-06-06 04:00:00 12.2 4 Sudoeste 10 Oeste 0 -- -- 74
2019-06-06 03:00:00 13.3 5 Oeste 9 Oeste 0 -- -- 69
2019-06-06 02:00:00 14.3 3 Oeste 8 Oeste 0 -- -- 66
2019-06-06 01:00:00 14.7 3 Oeste 9 Oeste 0 -- -- 64
2019-06-06 00:00:00 16.1 4 Oeste 14 Oeste 0 -- -- 60
2019-06-05 23:00:00 17 6 Sudoeste 14 Oeste 0 -- -- 56
2019-06-05 22:00:00 17.6 6 Oeste 35 Noroeste 0 -- -- 53
2019-06-05 21:00:00 18.3 11 Norte 34 Norte 0 -- -- 52
2019-06-05 20:00:00 19.6 11 Norte 30 Nordeste 0 -- -- 52
2019-06-05 19:00:00 20.5 17 Nordeste 48 Nordeste 0 -- -- 53
2019-06-05 18:00:00 22.3 27 Noroeste 51 Noroeste 0 -- -- 60
2019-06-05 17:00:00 24.3 14 Sur 32 Sur 0 -- -- 65
2019-06-05 16:00:00 23.7 12 Sur 33 Sur 0 -- -- 73
2019-06-05 15:00:00 23.3 18 Sur 32 Sur 0 -- -- 72
2019-06-05 14:00:00 23 8 Sur 22 Sur 0 -- -- 71
2019-06-05 13:00:00 23.3 9 Sur 19 Sudeste 0 -- -- 70
2019-06-05 12:00:00 22.6 10 Este 23 Nordeste 0 -- -- 72
2019-06-05 11:00:00 21.2 7 Nordeste 15 Este 0 -- -- 76
2019-06-05 10:00:00 20.4 5 Este 13 Este 0 -- -- 79
2019-06-05 09:00:00 18.9 3 Noroeste 9 Oeste 0 -- -- 83
2019-06-05 08:00:00 16.3 3 Sudoeste 8 Oeste 0 -- -- 84
2019-06-05 07:00:00 14.8 5 Oeste 12 Oeste 0 -- -- 88
2019-06-05 06:00:00 13.1 3 Sudoeste 14 Sudoeste 0 -- -- 94
2019-06-05 05:00:00 12 4 Oeste 9 Oeste 0 -- -- 90
2019-06-05 04:00:00 12.5 4 Oeste 8 Oeste 0 -- -- 88
2019-06-05 03:00:00 13.4 4 Oeste 8 Oeste 0 -- -- 87
2019-06-05 02:00:00 14.7 4 Oeste 8 Oeste 0 -- -- 85
2019-06-05 01:00:00 15.5 4 Oeste 8 Oeste 0 -- -- 84
2019-06-05 00:00:00 17 0 Calma 4 Oeste 0 -- -- 88
2019-06-04 23:00:00 17.9 2 Sudoeste 6 Sur 0 -- -- 81
2019-06-04 22:00:00 19.7 2 Sudeste 7 Sudoeste 0 -- -- 71
2019-06-04 21:00:00 21.1 4 Sudeste 18 Sudoeste 0 -- -- 66
2019-06-04 20:00:00 21.6 6 Sur 19 Sudoeste 0 -- -- 66
2019-06-04 19:00:00 22.6 7 Sur 26 Sudoeste 0 -- -- 67
2019-06-04 18:00:00 23.2 8 Sur 26 Sur 0 -- -- 60
2019-06-04 17:00:00 23.7 13 Sur 29 Sur 0 -- -- 59
2019-06-04 16:00:00 24.6 11 Sur 27 Sur 0 -- -- 55
2019-06-04 15:00:00 25.4 13 Sur 26 Sur 0 -- -- 55
2019-06-04 14:00:00 25.8 10 Sur 22 Sur 0 -- -- 47
2019-06-04 13:00:00 23.9 11 Sur 31 Sur 0 -- -- 62
2019-06-04 12:00:00 22.5 15 Sur 28 Sudeste 0 -- -- 73
2019-06-04 11:00:00 22.2 9 Sur 25 Sur 0 -- -- 76
2019-06-04 10:00:00 22.1 13 Sur 24 Sudoeste 0 -- -- 71
2019-06-04 09:00:00 21.2 9 Sur 24 Sur 0 -- -- 73
2019-06-04 08:00:00 20.1 9 Sur 22 Sur 0 -- -- 68
2019-06-04 07:00:00 18.6 10 Sur 21 Sur 0 -- -- 61
2019-06-04 06:00:00 17.9 10 Sur 22 Sur 0 -- -- 69
2019-06-04 05:00:00 18 12 Sur 22 Sur 0 -- -- 61
2019-06-04 04:00:00 18 6 Sur 17 Sur 0 -- -- 67
2019-06-04 03:00:00 16.9 5 Sur 10 Sudoeste 0 -- -- 67
2019-06-04 02:00:00 17.6 4 Sudoeste 14 Sudoeste 0 -- -- 67
2019-06-04 01:00:00 19.2 8 Sudoeste 19 Sur 0 -- -- 73
2019-06-04 00:00:00 18.9 4 Sudoeste 18 Oeste 0 -- -- 67
2019-06-03 23:00:00 19.3 7 Sur 15 Sudoeste 0 -- -- 72
2019-06-03 22:00:00 19.7 6 Sudoeste 21 Sudoeste 0 -- -- 74
2019-06-03 21:00:00 20.4 10 Sur 27 Sudeste 0 -- -- 69
2019-06-03 20:00:00 22.1 7 Este 30 Sur 0 -- -- 61
2019-06-03 19:00:00 22.9 8 Este 24 Sudeste 0 -- -- 58
2019-06-03 18:00:00 22.7 15 Sudeste 27 Sudeste 0 -- -- 63
2019-06-03 17:00:00 24.5 6 Este 36 Sur 0 -- -- 52
2019-06-03 16:00:00 25.1 12 Sur 33 Sur 0 -- -- 48
2019-06-03 15:00:00 25.8 13 Sur 32 Sur 0 -- -- 42
2019-06-03 14:00:00 26.7 17 Sur 32 Sur 0 -- -- 41
2019-06-03 13:00:00 26.7 13 Sur 29 Sur 0 -- -- 44
2019-06-03 12:00:00 24.6 20 Sur 32 Sur 0 -- -- 55
2019-06-03 11:00:00 23.4 13 Sudeste 21 Sudeste 0 -- -- 64
2019-06-03 10:00:00 20.6 9 Este 21 Este 0 -- -- 70
2019-06-03 09:00:00 20.1 6 Este 12 Este 0 -- -- 73
2019-06-03 08:00:00 16.2 3 Oeste 10 Oeste 0 -- -- 68
2019-06-03 07:00:00 12.6 4 Oeste 8 Oeste 0 -- -- 78
2019-06-03 06:00:00 12.3 5 Oeste 9 Oeste 0 -- -- 78
2019-06-03 05:00:00 12.7 4 Oeste 8 Oeste 0 -- -- 76
2019-06-03 04:00:00 13.2 2 Sudoeste 8 Oeste 0 -- -- 73
2019-06-03 03:00:00 13.5 4 Oeste 6 Oeste 0 -- -- 72
2019-06-03 02:00:00 14.7 4 Oeste 6 Sudoeste 0 -- -- 68
2019-06-03 01:00:00 16.4 0 Calma 7 Sur 0 -- -- 64
2019-06-03 00:00:00 18.3 3 Oeste 7 Sudoeste 0 -- -- 57
2019-06-02 23:00:00 20.3 3 Sudoeste 17 Sudoeste 0 -- -- 47
2019-06-02 22:00:00 22.1 10 Sur 24 Sudoeste 0 -- -- 37
2019-06-02 21:00:00 22.7 10 Sur 23 Sudoeste 0 -- -- 35
2019-06-02 20:00:00 23.1 6 Sudoeste 21 Sudoeste 0 -- -- 37
2019-06-02 19:00:00 23.6 6 Sur 31 Sudoeste 0 -- -- 40
2019-06-02 18:00:00 25 9 Sudoeste 28 Sur 0 -- -- 39
2019-06-02 17:00:00 25.5 12 Sur 27 Sudoeste 0 -- -- 38
2019-06-02 16:00:00 25.1 13 Sur 33 Sudoeste 0 -- -- 45
2019-06-02 15:00:00 24.6 15 Sur 29 Sudoeste 0 -- -- 52
2019-06-02 14:00:00 24.2 13 Sur 31 Sudoeste 0 -- -- 59
2019-06-02 13:00:00 24.4 10 Sur 28 Sur 0 -- -- 57
2019-06-02 12:00:00 24.3 14 Sur 31 Sur 0 -- -- 59
2019-06-02 11:00:00 23.9 17 Sur 29 Sur 0 -- -- 60
2019-06-02 10:00:00 22.7 13 Sur 25 Sur 0 -- -- 61
2019-06-02 09:00:00 20.4 2 Sur 11 Sudoeste 0 -- -- 63
2019-06-02 08:00:00 15.8 3 Oeste 6 Noroeste 0 -- -- 73
2019-06-02 07:00:00 12.5 4 Oeste 12 Oeste 0 -- -- 81
2019-06-02 06:00:00 12.5 3 Oeste 7 Oeste 0 -- -- 81
2019-06-02 05:00:00 13.8 3 Oeste 9 Noroeste 0 -- -- 79
2019-06-02 04:00:00 13.4 4 Oeste 9 Sudoeste 0 -- -- 82
2019-06-02 03:00:00 14.1 3 Sudoeste 7 Sur 0 -- -- 83
2019-06-02 02:00:00 15 3 Sudoeste 9 Sudoeste 0 -- -- 81
2019-06-02 01:00:00 16.3 4 Sudoeste 12 Sudoeste 0 -- -- 78
2019-06-02 00:00:00 16.4 2 Sudoeste 9 Sur 0 -- -- 75
2019-06-01 23:00:00 17.9 3 Oeste 16 Sur 0 -- -- 67
2019-06-01 22:00:00 19 12 Sur 20 Sur 0 -- -- 72
2019-06-01 21:00:00 19.6 6 Sudoeste 19 Sur 0 -- -- 74
2019-06-01 20:00:00 20.9 7 Sur 23 Sur 0 -- -- 67
2019-06-01 19:00:00 22.4 9 Sur 27 Sudoeste 0 -- -- 61
2019-06-01 18:00:00 22.8 12 Sur 32 Sur 0 -- -- 63
2019-06-01 17:00:00 23.4 16 Sur 36 Sur 0 -- -- 58
2019-06-01 16:00:00 22.7 19 Sur 37 Sur 0 -- -- 69
2019-06-01 15:00:00 23.5 18 Sur 31 Sur 0 -- -- 64
2019-06-01 14:00:00 23.4 12 Sudeste 22 Sur 0 -- -- 63
2019-06-01 13:00:00 23.5 12 Sudeste 18 Sur 0 -- -- 59
2019-06-01 12:00:00 23.2 8 Sudeste 16 Este 0 -- -- 51
2019-06-01 11:00:00 22.8 8 Sudeste 14 Sudeste 0 -- -- 53
2019-06-01 10:00:00 22.8 5 Este 10 Este 0 -- -- 55
2019-06-01 09:00:00 20.6 3 Sudoeste 10 Oeste 0 -- -- 65
2019-06-01 08:00:00 15.6 5 Oeste 16 Sudoeste 0 -- -- 76
2019-06-01 07:00:00 12.6 6 Oeste 12 Sudoeste 0 -- -- 86
2019-06-01 06:00:00 12.6 7 Oeste 13 Oeste 0 -- -- 84
2019-06-01 05:00:00 13.1 7 Oeste 13 Oeste 0 -- -- 82
2019-06-01 04:00:00 13.4 6 Oeste 13 Oeste 0 -- -- 81
2019-06-01 03:00:00 14.5 4 Oeste 11 Noroeste 0 -- -- 79
2019-06-01 02:00:00 14.2 4 Oeste 13 Oeste 0 -- -- 78
2019-06-01 01:00:00 14.6 5 Oeste 15 Oeste 0 -- -- 76
2019-06-01 00:00:00 15.5 5 Sudoeste 13 Sudoeste 0 -- -- 72
2019-05-31 23:00:00 16.4 3 Oeste 8 Oeste 0 -- -- 70
2019-05-31 22:00:00 18.5 2 Oeste 4 Oeste 0 -- -- 61
2019-05-31 21:00:00 21 4 Sudeste 15 Sudoeste 0 -- -- 50
2019-05-31 20:00:00 21.9 7 Sur 22 Sur 0 -- -- 47
2019-05-31 19:00:00 21.9 9 Sur 21 Sur 0 -- -- 54
2019-05-31 18:00:00 22.8 8 Sur 22 Sudeste 0 -- -- 57
2019-05-31 17:00:00 23.1 9 Sur 23 Sudeste 0 -- -- 53
2019-05-31 16:00:00 23.3 12 Sur 27 Sudeste 0 -- -- 50
2019-05-31 15:00:00 23.8 11 Sur 21 Sur 0 -- -- 51
2019-05-31 14:00:00 23.7 12 Sur 24 Sur 0 -- -- 52
2019-05-31 13:00:00 23.9 12 Sudeste 22 Sudeste 0 -- -- 46
2019-05-31 12:00:00 24 12 Sur 25 Sur 0 -- -- 43
2019-05-31 11:00:00 25.2 11 Sur 22 Sudoeste 0 -- -- 41
2019-05-31 10:00:00 23.3 6 Oeste 21 Oeste 0 -- -- 53
2019-05-31 09:00:00 19.3 11 Oeste 23 Oeste 0 -- -- 66
2019-05-31 08:00:00 16.2 8 Oeste 18 Oeste 0 -- -- 77
2019-05-31 07:00:00 12.6 4 Oeste 13 Sudoeste 0 -- -- 87
2019-05-31 06:00:00 12.5 5 Oeste 14 Oeste 0 -- -- 86
2019-05-31 05:00:00 13.2 5 Oeste 12 Sudoeste 0 -- -- 85
2019-05-31 04:00:00 13.7 4 Oeste 14 Oeste 0 -- -- 84
2019-05-31 03:00:00 14.9 9 Oeste 19 Oeste 0 -- -- 79
2019-05-31 02:00:00 15.6 7 Oeste 21 Noroeste 0 -- -- 75
2019-05-31 01:00:00 15.8 9 Oeste 18 Oeste 0 -- -- 74
2019-05-31 00:00:00 15.3 7 Oeste 14 Oeste 0 -- -- 73
2019-05-30 23:00:00 16.7 4 Oeste 10 Oeste 0 -- -- 70
2019-05-30 22:00:00 17.9 3 Sudoeste 9 Sudoeste 0 -- -- 62
2019-05-30 21:00:00 19.9 5 Sudoeste 12 Sur 0 -- -- 56
2019-05-30 20:00:00 20.6 7 Sur 21 Sur 0 -- -- 56
2019-05-30 19:00:00 20.7 12 Sur 28 Sur 0 -- -- 66
2019-05-30 18:00:00 20.6 15 Sur 32 Sur 0 -- -- 68
2019-05-30 17:00:00 21.2 17 Sur 32 Sur 0 -- -- 55
2019-05-30 16:00:00 22.2 13 Sur 29 Sudoeste 0 -- -- 50
2019-05-30 15:00:00 21.6 17 Sur 30 Sur 0 -- -- 52
2019-05-30 14:00:00 21.2 16 Sur 32 Sur 0 -- -- 58
2019-05-30 13:00:00 21.9 21 Sur 33 Sur 0 -- -- 56
2019-05-30 12:00:00 21.7 12 Sur 25 Sur 0 -- -- 50
2019-05-30 11:00:00 21.4 11 Sur 20 Sur 0 -- -- 51
2019-05-30 10:00:00 20.6 2 Sudoeste 12 Oeste 0 -- -- 51
2019-05-30 09:00:00 18.2 5 Oeste 13 Oeste 0 -- -- 64
2019-05-30 08:00:00 14.4 6 Sudoeste 16 Oeste 0 -- -- 80
2019-05-30 07:00:00 11.3 5 Sudoeste 15 Sudoeste 0 -- -- 91
2019-05-30 06:00:00 10.8 7 Sudoeste 19 Sudoeste 0 -- -- 94
2019-05-30 05:00:00 11.1 5 Oeste 14 Sudoeste 0 -- -- 93
2019-05-30 04:00:00 11.3 6 Noroeste 13 Sudoeste 0 -- -- 94
2019-05-30 03:00:00 11.4 5 Sudoeste 13 Sudoeste 0 -- -- 91
2019-05-30 02:00:00 11.7 4 Oeste 13 Norte 0 -- -- 90
2019-05-30 01:00:00 12.2 3 Sudoeste 12 Oeste 0 -- -- 91
2019-05-30 00:00:00 12.8 7 Oeste 12 Oeste 0 -- -- 86
2019-05-29 23:00:00 14.1 4 Oeste 8 Sudoeste 0 -- -- 83
2019-05-29 22:00:00 16.1 4 Noroeste 16 Sudoeste 0 -- -- 79
2019-05-29 21:00:00 17.3 3 Este 14 Sudoeste 0 -- -- 76
2019-05-29 20:00:00 18.2 8 Sur 23 Sur 0 -- -- 75
2019-05-29 19:00:00 18.6 10 Sur 28 Sudeste 0 -- -- 70
2019-05-29 18:00:00 19.6 15 Sur 33 Sudoeste 0 -- -- 66
2019-05-29 17:00:00 19 14 Sur 30 Sur 0 -- -- 65
2019-05-29 16:00:00 20.8 17 Sur 33 Sur 0 -- -- 63
2019-05-29 15:00:00 19.8 12 Sur 29 Sur 0 -- -- 66
2019-05-29 14:00:00 20.2 14 Sur 28 Sur 0 -- -- 59
2019-05-29 13:00:00 21.4 16 Sur 28 Sur 0 -- -- 53
2019-05-29 12:00:00 20.5 13 Sur 28 Sudoeste 0 -- -- 55
2019-05-29 11:00:00 20.5 9 Oeste 26 Oeste 0 -- -- 44
2019-05-29 10:00:00 18.8 10 Noroeste 27 Norte 0 -- -- 43
2019-05-29 09:00:00 16.9 14 Norte 31 Norte 0 -- -- 50
2019-05-29 08:00:00 13.8 11 Oeste 20 Oeste 0 -- -- 77
2019-05-29 07:00:00 10.9 9 Oeste 15 Oeste 0 -- -- 84
2019-05-29 06:00:00 11.7 4 Sudoeste 17 Oeste 0 -- -- 73
2019-05-29 05:00:00 14.6 16 Noroeste 38 Norte 0 -- -- 59
2019-05-29 04:00:00 14.9 16 Norte 35 Noroeste 0 -- -- 56
2019-05-29 03:00:00 15.6 8 Norte 20 Norte 0 -- -- 58
2019-05-29 02:00:00 15.6 9 Norte 21 Norte 0 -- -- 65
2019-05-29 01:00:00 14.8 3 Oeste 10 Noroeste 0 -- -- 89
2019-05-29 00:00:00 14.7 3 Sudeste 9 Sudoeste 0 -- -- 90
2019-05-28 23:00:00 14.9 4 Oeste 16 Oeste 0 -- -- 89
2019-05-28 22:00:00 15.1 6 Oeste 20 Oeste 0.2 -- -- 90
2019-05-28 21:00:00 16.1 12 Oeste 24 Oeste 0 -- -- 83
2019-05-28 20:00:00 18 9 Noroeste 17 Oeste 0 -- -- 66
2019-05-28 19:00:00 19.9 4 Oeste 14 Sur 0 -- -- 55
2019-05-28 18:00:00 19.9 7 Oeste 14 Oeste 0 -- -- 60
2019-05-28 17:00:00 19 3 Oeste 12 Oeste 0 -- -- 60
2019-05-28 16:00:00 18.6 5 Sur 15 Sudeste 0 -- -- 50
2019-05-28 15:00:00 19.1 10 Sur 16 Sur 0 -- -- 52
2019-05-28 14:00:00 19.7 6 Sudeste 14 Sudeste 0 -- -- 51
2019-05-28 13:00:00 19.2 8 Sur 15 Sudeste 0 -- -- 57
2019-05-28 12:00:00 18.7 7 Este 19 Este 0 -- -- 55
2019-05-28 11:00:00 19.9 2 Sudoeste 14 Noroeste 0 -- -- 56
2019-05-28 10:00:00 18.3 6 Norte 13 Norte 0 -- -- 61
2019-05-28 09:00:00 17.2 3 Oeste 9 Norte 0 -- -- 70
2019-05-28 08:00:00 14.6 5 Oeste 11 Oeste 0 -- -- 88
2019-05-28 07:00:00 13.5 4 Oeste 9 Sudoeste 0 -- -- 92
2019-05-28 06:00:00 12.7 3 Oeste 9 Oeste 0 -- -- 94
2019-05-28 05:00:00 12.9 5 Oeste 9 Noroeste 0 -- -- 92
2019-05-28 04:00:00 13.9 4 Oeste 6 Oeste 0 -- -- 92
2019-05-28 03:00:00 14.9 3 Oeste 7 Oeste 0 -- -- 90
2019-05-28 02:00:00 15.9 3 Oeste 11 Oeste 0 -- -- 89
2019-05-28 01:00:00 16.5 3 Oeste 8 Sudoeste 0 -- -- 87
2019-05-28 00:00:00 17.2 3 Sudoeste 7 Sudoeste 0 -- -- 84